To NAV CANADA Home Page Login to a new session Search on AWWS site Feedback and Comments Disclaimer Vers la page française équivalente Tips FAQ What's new on the site To the Forecasts and Observations / NOTAM section To "File a Flight Plan" website Publications and other links Update of the User's profile FIC Telephone Numbers My Weather Data Folder Route Weather Data Regional Weather Data Local Weather Data To the Forecasts and Observations / NOTAM section
Request Generated 05/25/2017 at 01:08:40 UTC . Weather information available at that time is displayed.

METAR/TAF

COLD LAKE/GROUP CAPTAIN R.W. MCNAIR/AB    

METAR CYOD 250100Z 01024G30KT 3SM -SHRA BR OVC020 10/10 A2930 RMK SC8 SLP932=
METAR CYOD 250000Z 02019G30KT 3SM -SHRA BR OVC016 11/10 A2929 RMK SC8 SLP928=
SPECI CYOD 242316Z CCA 03020G28KT 3SM -SHRA BR OVC016 11/10 A2925 RMK SC8 PRESRR SLP914=
SPECI CYOD 242316Z 03020G28KT 3SM -SHRA OVC016 11/10 A2925 RMK SC8 PRESRR SLP914=
METAR CYOD 242300Z 02022G28KT 15SM -SHRA OVC021 12/10 A2923 RMK SC8 PRESRR SLP907=

TAF AMD CYOD 242340Z 2500/2524 02030G40KT P6SM -RA SCT010 OVC030
TEMPO 2500/2510 3SM -SHRA BR BKN010 OVC030
BECMG 2508/2510 36020G32KT
FM251500 35018G28KT P6SM BKN030 OVC080 TEMPO 2515/2518 P6SM -SHRA
RMK NXT FCST BY 250600Z=
Your time UTC time
Weather data provided by Environment Canada and NAV CANADA